Startpagina
METAR-TAF:

METAR-TAF

Vliegvelden :

Internationale luchthaven van Nouakchott

Nouakchott, Mauritanië

breedte: 18-18-36N, lengte: 015-58-11W, hoogte: 3 m

Actueel weer

Dit bericht is 46 minuten geleden gemaakt, om 19:30 UTC
Wind 6 kt uit het oostnoordoosten
Temperatuur 29°C
Vochtigheid 8%
Druk 1012 hPa
Zicht: 4500 m
Stuifstof

METAR: GQNO 281930Z 07006KT 4500 BLDU NSC 29/M09 Q1012 BECMG 6000 NSW

Tijdstip: 20:16 (20:16 UTC)

Verwachting

Dit bericht is 3 uur en het 16 minuten geleden gemaakt, om 17:00 UTC
Verwachting geldig van 28 om 18 UTC tot 29 om 24 UTC
Wind 10 kt uit het oosten
Zicht: 6000 m
Wijzigt naar
van 28 om 20 UTC tot 28 om 23 UTC
Wind 10 kt uit het noordnoordoosten
Wijzigt naar
van 29 om 08 UTC tot 29 om 11 UTC
Wind 14 kt uit het oosten
Kans 40% :
Tijdelijke
van 29 om 10 UTC tot 29 om 16 UTC
Zicht: 4000 m
Stuifzand

TAF: GQNO 281700Z 2818/2924 08010KT 6000 NSC BECMG 2820/2823 02010KT BECMG 2908/2911 08014KT PROB40 TEMPO 2910/2916 4000 BLSA

Waarnemingen en weersverwachtingen van meer dan 4000 vliegvelden (METAR en TAF).

De beschikbare stations zijn de gele en rode punten op de kaart.

Ga met uw muis naar het station om de naam te zien.

Klik dan om waarnemingen en weersverwachtingen te zien.

kaart wijzigen: klik op de groene knoppen met een zwart kruis om in te zoomen, op de groene knop met een streepje om uit te zoomen of op de groene pijlen voor aangrenzende kaarten.


METAR-TAF: